sensor_id;sensor_type;location;lat;lon;timestamp;temperature;humidity
9329;DHT22;4703;48.748;19.142;2023-03-13T00:03:47;3.80;93.00
9329;DHT22;4703;48.748;19.142;2023-03-13T00:06:14;4.10;93.40
9329;DHT22;4703;48.748;19.142;2023-03-13T00:08:42;3.70;93.20
9329;DHT22;4703;48.748;19.142;2023-03-13T00:11:11;3.80;93.30
9329;DHT22;4703;48.748;19.142;2023-03-13T00:13:39;5.50;94.20
9329;DHT22;4703;48.748;19.142;2023-03-13T00:16:09;6.30;94.80
9329;DHT22;4703;48.748;19.142;2023-03-13T00:18:48;3.70;93.80
9329;DHT22;4703;48.748;19.142;2023-03-13T00:21:18;3.70;93.90
9329;DHT22;4703;48.748;19.142;2023-03-13T00:23:47;3.70;93.80
9329;DHT22;4703;48.748;19.142;2023-03-13T00:26:16;3.70;93.60
9329;DHT22;4703;48.748;19.142;2023-03-13T00:28:45;6.00;94.40
9329;DHT22;4703;48.748;19.142;2023-03-13T00:33:44;3.70;93.40
9329;DHT22;4703;48.748;19.142;2023-03-13T00:36:16;6.80;94.90
9329;DHT22;4703;48.748;19.142;2023-03-13T00:38:45;3.80;93.70
9329;DHT22;4703;48.748;19.142;2023-03-13T00:41:15;6.80;95.40
9329;DHT22;4703;48.748;19.142;2023-03-13T00:43:44;3.70;94.30
9329;DHT22;4703;48.748;19.142;2023-03-13T00:46:15;3.70;94.10
9329;DHT22;4703;48.748;19.142;2023-03-13T00:48:44;3.70;94.00
9329;DHT22;4703;48.748;19.142;2023-03-13T00:51:11;3.70;93.80
9329;DHT22;4703;48.748;19.142;2023-03-13T00:53:39;3.60;94.10
9329;DHT22;4703;48.748;19.142;2023-03-13T00:56:09;3.70;94.40
9329;DHT22;4703;48.748;19.142;2023-03-13T00:58:39;5.80;95.40
9329;DHT22;4703;48.748;19.142;2023-03-13T01:03:44;3.60;94.50
9329;DHT22;4703;48.748;19.142;2023-03-13T01:06:16;3.70;94.40
9329;DHT22;4703;48.748;19.142;2023-03-13T01:08:44;3.60;94.60
9329;DHT22;4703;48.748;19.142;2023-03-13T01:11:17;3.70;94.80
9329;DHT22;4703;48.748;19.142;2023-03-13T01:13:46;3.70;94.80
9329;DHT22;4703;48.748;19.142;2023-03-13T01:16:16;3.70;94.50
9329;DHT22;4703;48.748;19.142;2023-03-13T01:18:47;3.70;94.40
9329;DHT22;4703;48.748;19.142;2023-03-13T01:21:16;3.70;94.80
9329;DHT22;4703;48.748;19.142;2023-03-13T01:23:48;3.80;95.20
9329;DHT22;4703;48.748;19.142;2023-03-13T01:26:15;3.70;95.40
9329;DHT22;4703;48.748;19.142;2023-03-13T01:28:43;3.80;95.20
9329;DHT22;4703;48.748;19.142;2023-03-13T01:31:19;3.80;95.30
9329;DHT22;4703;48.748;19.142;2023-03-13T01:33:49;3.80;95.50
9329;DHT22;4703;48.748;19.142;2023-03-13T01:36:19;3.70;95.50
9329;DHT22;4703;48.748;19.142;2023-03-13T01:38:51;6.20;96.50
9329;DHT22;4703;48.748;19.142;2023-03-13T01:41:20;3.70;95.20
9329;DHT22;4703;48.748;19.142;2023-03-13T01:43:48;3.70;95.10
9329;DHT22;4703;48.748;19.142;2023-03-13T01:46:23;3.70;95.30
9329;DHT22;4703;48.748;19.142;2023-03-13T01:49:02;3.70;95.30
9329;DHT22;4703;48.748;19.142;2023-03-13T01:51:39;3.70;95.40
9329;DHT22;4703;48.748;19.142;2023-03-13T01:57:22;3.60;95.70
9329;DHT22;4703;48.748;19.142;2023-03-13T02:00:03;3.70;96.20
9329;DHT22;4703;48.748;19.142;2023-03-13T02:02:35;3.70;96.40
9329;DHT22;4703;48.748;19.142;2023-03-13T02:05:04;3.70;96.20
9329;DHT22;4703;48.748;19.142;2023-03-13T02:07:44;3.70;95.80
9329;DHT22;4703;48.748;19.142;2023-03-13T02:10:15;4.00;95.80
9329;DHT22;4703;48.748;19.142;2023-03-13T02:12:43;3.70;95.60
9329;DHT22;4703;48.748;19.142;2023-03-13T02:15:19;3.60;95.60
9329;DHT22;4703;48.748;19.142;2023-03-13T02:17:47;3.70;95.70
9329;DHT22;4703;48.748;19.142;2023-03-13T02:20:18;3.60;95.80
9329;DHT22;4703;48.748;19.142;2023-03-13T02:22:55;3.70;96.10
9329;DHT22;4703;48.748;19.142;2023-03-13T02:25:39;6.20;97.80
9329;DHT22;4703;48.748;19.142;2023-03-13T02:28:14;3.80;96.60
9329;DHT22;4703;48.748;19.142;2023-03-13T02:30:45;3.70;96.50
9329;DHT22;4703;48.748;19.142;2023-03-13T02:33:13;5.80;97.40
9329;DHT22;4703;48.748;19.142;2023-03-13T02:35:42;3.80;96.60
9329;DHT22;4703;48.748;19.142;2023-03-13T02:38:13;3.70;96.40
9329;DHT22;4703;48.748;19.142;2023-03-13T02:40:45;3.80;96.70
9329;DHT22;4703;48.748;19.142;2023-03-13T02:43:32;6.80;98.20
9329;DHT22;4703;48.748;19.142;2023-03-13T02:46:15;3.80;96.80
9329;DHT22;4703;48.748;19.142;2023-03-13T02:48:49;3.90;97.10
9329;DHT22;4703;48.748;19.142;2023-03-13T02:54:11;3.80;97.70
9329;DHT22;4703;48.748;19.142;2023-03-13T02:56:42;3.80;97.70
9329;DHT22;4703;48.748;19.142;2023-03-13T02:59:11;3.80;98.00
9329;DHT22;4703;48.748;19.142;2023-03-13T03:01:38;3.80;98.20
9329;DHT22;4703;48.748;19.142;2023-03-13T03:04:05;3.80;98.40
9329;DHT22;4703;48.748;19.142;2023-03-13T03:06:32;3.80;98.80
9329;DHT22;4703;48.748;19.142;2023-03-13T03:08:59;3.80;99.40
9329;DHT22;4703;48.748;19.142;2023-03-13T03:11:26;3.70;99.90
9329;DHT22;4703;48.748;19.142;2023-03-13T03:13:53;3.70;99.90
9329;DHT22;4703;48.748;19.142;2023-03-13T03:16:20;3.70;99.90
9329;DHT22;4703;48.748;19.142;2023-03-13T03:18:47;3.60;99.90
9329;DHT22;4703;48.748;19.142;2023-03-13T03:21:14;3.60;99.90
9329;DHT22;4703;48.748;19.142;2023-03-13T03:23:41;3.60;99.90
9329;DHT22;4703;48.748;19.142;2023-03-13T03:26:08;3.50;99.90
9329;DHT22;4703;48.748;19.142;2023-03-13T03:28:35;3.50;99.90
9329;DHT22;4703;48.748;19.142;2023-03-13T03:31:04;3.50;99.90
9329;DHT22;4703;48.748;19.142;2023-03-13T03:33:32;3.50;99.90
9329;DHT22;4703;48.748;19.142;2023-03-13T03:36:07;3.40;99.90
9329;DHT22;4703;48.748;19.142;2023-03-13T03:38:39;3.40;99.90
9329;DHT22;4703;48.748;19.142;2023-03-13T03:41:07;4.50;99.90
9329;DHT22;4703;48.748;19.142;2023-03-13T03:43:35;3.30;99.90
9329;DHT22;4703;48.748;19.142;2023-03-13T03:46:02;3.30;99.90
9329;DHT22;4703;48.748;19.142;2023-03-13T03:48:29;3.40;99.90
9329;DHT22;4703;48.748;19.142;2023-03-13T03:50:56;3.20;99.90
9329;DHT22;4703;48.748;19.142;2023-03-13T03:53:24;3.30;99.90
9329;DHT22;4703;48.748;19.142;2023-03-13T03:55:51;3.20;99.90
9329;DHT22;4703;48.748;19.142;2023-03-13T03:58:18;3.20;99.90
9329;DHT22;4703;48.748;19.142;2023-03-13T04:00:46;3.20;99.90
9329;DHT22;4703;48.748;19.142;2023-03-13T04:03:14;3.10;99.90
9329;DHT22;4703;48.748;19.142;2023-03-13T04:05:42;6.00;99.90
9329;DHT22;4703;48.748;19.142;2023-03-13T04:08:09;3.10;99.90
9329;DHT22;4703;48.748;19.142;2023-03-13T04:10:36;3.10;99.90
9329;DHT22;4703;48.748;19.142;2023-03-13T04:13:04;3.10;99.90
9329;DHT22;4703;48.748;19.142;2023-03-13T04:15:31;3.00;99.90
9329;DHT22;4703;48.748;19.142;2023-03-13T04:17:58;4.40;99.90
9329;DHT22;4703;48.748;19.142;2023-03-13T04:20:25;3.00;99.90
9329;DHT22;4703;48.748;19.142;2023-03-13T04:22:54;3.00;99.90
9329;DHT22;4703;48.748;19.142;2023-03-13T04:25:21;3.00;99.90
9329;DHT22;4703;48.748;19.142;2023-03-13T04:27:48;3.00;99.90
9329;DHT22;4703;48.748;19.142;2023-03-13T04:30:15;2.90;99.90
9329;DHT22;4703;48.748;19.142;2023-03-13T04:32:44;3.00;99.90
9329;DHT22;4703;48.748;19.142;2023-03-13T04:35:11;3.00;99.90
9329;DHT22;4703;48.748;19.142;2023-03-13T04:37:39;3.00;99.90
9329;DHT22;4703;48.748;19.142;2023-03-13T04:40:06;5.30;99.90
9329;DHT22;4703;48.748;19.142;2023-03-13T04:42:33;3.00;99.90
9329;DHT22;4703;48.748;19.142;2023-03-13T04:45:00;3.00;99.90
9329;DHT22;4703;48.748;19.142;2023-03-13T04:47:27;3.00;99.90
9329;DHT22;4703;48.748;19.142;2023-03-13T04:49:54;3.00;99.90
9329;DHT22;4703;48.748;19.142;2023-03-13T04:52:21;3.00;99.90
9329;DHT22;4703;48.748;19.142;2023-03-13T04:54:48;3.00;99.90
9329;DHT22;4703;48.748;19.142;2023-03-13T04:57:16;3.00;99.90
9329;DHT22;4703;48.748;19.142;2023-03-13T04:59:43;3.00;99.90
9329;DHT22;4703;48.748;19.142;2023-03-13T05:02:11;3.00;99.90
9329;DHT22;4703;48.748;19.142;2023-03-13T05:04:38;3.00;99.90
9329;DHT22;4703;48.748;19.142;2023-03-13T05:07:05;2.90;99.90
9329;DHT22;4703;48.748;19.142;2023-03-13T05:09:32;2.90;99.90
9329;DHT22;4703;48.748;19.142;2023-03-13T05:11:59;5.90;99.90
9329;DHT22;4703;48.748;19.142;2023-03-13T05:14:26;2.90;99.90
9329;DHT22;4703;48.748;19.142;2023-03-13T05:16:53;5.20;99.90
9329;DHT22;4703;48.748;19.142;2023-03-13T05:19:20;2.90;99.90
9329;DHT22;4703;48.748;19.142;2023-03-13T05:21:47;2.80;99.90
9329;DHT22;4703;48.748;19.142;2023-03-13T05:24:14;2.90;99.90
9329;DHT22;4703;48.748;19.142;2023-03-13T05:26:41;4.30;99.90
9329;DHT22;4703;48.748;19.142;2023-03-13T05:29:08;4.70;99.90
9329;DHT22;4703;48.748;19.142;2023-03-13T05:31:35;2.90;99.90
9329;DHT22;4703;48.748;19.142;2023-03-13T05:34:02;2.80;99.90
9329;DHT22;4703;48.748;19.142;2023-03-13T05:36:29;2.80;99.90
9329;DHT22;4703;48.748;19.142;2023-03-13T05:38:56;2.90;99.90
9329;DHT22;4703;48.748;19.142;2023-03-13T05:41:23;2.90;99.90
9329;DHT22;4703;48.748;19.142;2023-03-13T05:43:50;3.00;99.90
9329;DHT22;4703;48.748;19.142;2023-03-13T05:46:17;4.60;99.90
9329;DHT22;4703;48.748;19.142;2023-03-13T05:48:44;2.80;99.90
9329;DHT22;4703;48.748;19.142;2023-03-13T05:51:12;5.20;99.90
9329;DHT22;4703;48.748;19.142;2023-03-13T05:53:39;2.90;99.90
9329;DHT22;4703;48.748;19.142;2023-03-13T05:56:06;2.90;99.90
9329;DHT22;4703;48.748;19.142;2023-03-13T05:58:33;3.00;99.90
9329;DHT22;4703;48.748;19.142;2023-03-13T06:01:06;3.00;99.90
9329;DHT22;4703;48.748;19.142;2023-03-13T06:03:33;3.00;99.90
9329;DHT22;4703;48.748;19.142;2023-03-13T06:06:01;2.90;99.90
9329;DHT22;4703;48.748;19.142;2023-03-13T06:08:28;3.00;99.90
9329;DHT22;4703;48.748;19.142;2023-03-13T06:10:58;3.00;99.90
9329;DHT22;4703;48.748;19.142;2023-03-13T06:13:26;3.10;99.90
9329;DHT22;4703;48.748;19.142;2023-03-13T06:15:55;3.10;99.90
9329;DHT22;4703;48.748;19.142;2023-03-13T06:18:23;3.10;99.90
9329;DHT22;4703;48.748;19.142;2023-03-13T06:20:56;3.10;99.90
9329;DHT22;4703;48.748;19.142;2023-03-13T06:23:24;3.20;99.90
9329;DHT22;4703;48.748;19.142;2023-03-13T06:25:52;3.20;99.90
9329;DHT22;4703;48.748;19.142;2023-03-13T06:28:19;3.30;99.90
9329;DHT22;4703;48.748;19.142;2023-03-13T06:30:46;3.30;99.90
9329;DHT22;4703;48.748;19.142;2023-03-13T06:33:13;3.40;99.90
9329;DHT22;4703;48.748;19.142;2023-03-13T06:35:41;3.40;99.90
9329;DHT22;4703;48.748;19.142;2023-03-13T06:38:26;3.50;99.90
9329;DHT22;4703;48.748;19.142;2023-03-13T06:40:53;3.60;99.90
9329;DHT22;4703;48.748;19.142;2023-03-13T06:43:20;6.70;99.90
9329;DHT22;4703;48.748;19.142;2023-03-13T06:45:47;3.60;99.90
9329;DHT22;4703;48.748;19.142;2023-03-13T06:48:14;3.60;99.90
9329;DHT22;4703;48.748;19.142;2023-03-13T06:50:42;4.70;99.90
9329;DHT22;4703;48.748;19.142;2023-03-13T06:53:16;3.70;99.90
9329;DHT22;4703;48.748;19.142;2023-03-13T06:55:45;6.80;99.90
9329;DHT22;4703;48.748;19.142;2023-03-13T06:58:12;3.80;99.90
9329;DHT22;4703;48.748;19.142;2023-03-13T07:00:57;3.90;99.90
9329;DHT22;4703;48.748;19.142;2023-03-13T07:03:25;3.90;99.90
9329;DHT22;4703;48.748;19.142;2023-03-13T07:05:56;3.90;99.90
9329;DHT22;4703;48.748;19.142;2023-03-13T07:08:24;3.90;99.90
9329;DHT22;4703;48.748;19.142;2023-03-13T07:10:52;3.90;99.90
9329;DHT22;4703;48.748;19.142;2023-03-13T07:13:19;6.30;99.90
9329;DHT22;4703;48.748;19.142;2023-03-13T07:15:48;3.90;99.90
9329;DHT22;4703;48.748;19.142;2023-03-13T07:18:15;4.00;99.90
9329;DHT22;4703;48.748;19.142;2023-03-13T07:20:42;4.00;99.90
9329;DHT22;4703;48.748;19.142;2023-03-13T07:23:09;5.90;99.90
9329;DHT22;4703;48.748;19.142;2023-03-13T07:25:36;4.10;99.90
9329;DHT22;4703;48.748;19.142;2023-03-13T07:28:03;4.10;99.90
9329;DHT22;4703;48.748;19.142;2023-03-13T07:30:31;4.10;99.90
9329;DHT22;4703;48.748;19.142;2023-03-13T07:32:58;4.20;99.90
9329;DHT22;4703;48.748;19.142;2023-03-13T07:35:25;4.30;99.90
9329;DHT22;4703;48.748;19.142;2023-03-13T07:37:52;4.30;99.90
9329;DHT22;4703;48.748;19.142;2023-03-13T07:40:19;4.30;99.90
9329;DHT22;4703;48.748;19.142;2023-03-13T07:42:46;4.40;99.90
9329;DHT22;4703;48.748;19.142;2023-03-13T07:45:13;4.50;99.90
9329;DHT22;4703;48.748;19.142;2023-03-13T07:47:40;4.60;99.90
9329;DHT22;4703;48.748;19.142;2023-03-13T07:50:07;4.60;99.90
9329;DHT22;4703;48.748;19.142;2023-03-13T07:52:35;4.70;99.90
9329;DHT22;4703;48.748;19.142;2023-03-13T07:55:02;4.70;99.90
9329;DHT22;4703;48.748;19.142;2023-03-13T07:57:29;4.70;99.90
9329;DHT22;4703;48.748;19.142;2023-03-13T07:59:56;4.70;99.90
9329;DHT22;4703;48.748;19.142;2023-03-13T08:02:23;4.70;99.90
9329;DHT22;4703;48.748;19.142;2023-03-13T08:04:52;4.80;99.90
9329;DHT22;4703;48.748;19.142;2023-03-13T08:07:19;4.80;99.90
9329;DHT22;4703;48.748;19.142;2023-03-13T08:09:46;4.80;99.90
9329;DHT22;4703;48.748;19.142;2023-03-13T08:12:13;4.90;99.90
9329;DHT22;4703;48.748;19.142;2023-03-13T08:14:40;4.90;99.90
9329;DHT22;4703;48.748;19.142;2023-03-13T08:17:07;5.00;99.90
9329;DHT22;4703;48.748;19.142;2023-03-13T08:19:34;5.10;99.90
9329;DHT22;4703;48.748;19.142;2023-03-13T08:22:01;5.20;99.90
9329;DHT22;4703;48.748;19.142;2023-03-13T08:24:28;8.00;99.90
9329;DHT22;4703;48.748;19.142;2023-03-13T08:26:55;5.40;99.90
9329;DHT22;4703;48.748;19.142;2023-03-13T08:29:22;5.50;99.90
9329;DHT22;4703;48.748;19.142;2023-03-13T08:31:50;5.60;99.90
9329;DHT22;4703;48.748;19.142;2023-03-13T08:34:18;7.50;99.90
9329;DHT22;4703;48.748;19.142;2023-03-13T08:36:46;5.60;99.90
9329;DHT22;4703;48.748;19.142;2023-03-13T08:39:15;5.70;99.90
9329;DHT22;4703;48.748;19.142;2023-03-13T08:41:43;5.80;99.90
9329;DHT22;4703;48.748;19.142;2023-03-13T08:44:14;8.10;99.90
9329;DHT22;4703;48.748;19.142;2023-03-13T08:46:43;6.00;99.90
9329;DHT22;4703;48.748;19.142;2023-03-13T08:49:10;6.10;99.90
9329;DHT22;4703;48.748;19.142;2023-03-13T08:51:38;6.20;99.90
9329;DHT22;4703;48.748;19.142;2023-03-13T08:54:05;6.30;99.90
9329;DHT22;4703;48.748;19.142;2023-03-13T08:56:33;6.40;99.90
9329;DHT22;4703;48.748;19.142;2023-03-13T08:59:02;6.40;99.90
9329;DHT22;4703;48.748;19.142;2023-03-13T09:01:32;6.60;99.90
9329;DHT22;4703;48.748;19.142;2023-03-13T09:04:00;6.80;99.90
9329;DHT22;4703;48.748;19.142;2023-03-13T09:06:30;6.80;99.90
9329;DHT22;4703;48.748;19.142;2023-03-13T09:08:58;6.80;99.90
9329;DHT22;4703;48.748;19.142;2023-03-13T09:11:26;6.90;99.90
9329;DHT22;4703;48.748;19.142;2023-03-13T09:13:54;6.90;99.90
9329;DHT22;4703;48.748;19.142;2023-03-13T09:16:27;7.00;99.90
9329;DHT22;4703;48.748;19.142;2023-03-13T09:18:56;7.00;99.90
9329;DHT22;4703;48.748;19.142;2023-03-13T09:21:32;8.00;99.90
9329;DHT22;4703;48.748;19.142;2023-03-13T09:24:01;7.90;99.90
9329;DHT22;4703;48.748;19.142;2023-03-13T09:26:28;7.30;99.90
9329;DHT22;4703;48.748;19.142;2023-03-13T09:28:55;9.80;99.90
9329;DHT22;4703;48.748;19.142;2023-03-13T09:31:28;7.60;99.90
9329;DHT22;4703;48.748;19.142;2023-03-13T09:33:57;9.50;99.90
9329;DHT22;4703;48.748;19.142;2023-03-13T09:36:24;9.10;99.90
9329;DHT22;4703;48.748;19.142;2023-03-13T09:38:53;8.10;99.90
9329;DHT22;4703;48.748;19.142;2023-03-13T09:41:34;8.30;99.90
9329;DHT22;4703;48.748;19.142;2023-03-13T09:44:25;8.40;99.90
9329;DHT22;4703;48.748;19.142;2023-03-13T09:49:28;8.40;99.40
9329;DHT22;4703;48.748;19.142;2023-03-13T09:52:21;10.80;99.50
9329;DHT22;4703;48.748;19.142;2023-03-13T09:57:35;9.30;97.30
9329;DHT22;4703;48.748;19.142;2023-03-13T10:03:19;9.60;96.60
9329;DHT22;4703;48.748;19.142;2023-03-13T10:06:18;9.70;96.30
9329;DHT22;4703;48.748;19.142;2023-03-13T10:08:45;9.80;95.20
9329;DHT22;4703;48.748;19.142;2023-03-13T10:11:26;10.10;94.80
9329;DHT22;4703;48.748;19.142;2023-03-13T10:14:12;10.00;94.10
9329;DHT22;4703;48.748;19.142;2023-03-13T10:20:00;10.30;94.30
9329;DHT22;4703;48.748;19.142;2023-03-13T10:22:47;10.50;94.60
9329;DHT22;4703;48.748;19.142;2023-03-13T10:25:31;12.10;94.10
9329;DHT22;4703;48.748;19.142;2023-03-13T10:28:00;10.60;92.70
9329;DHT22;4703;48.748;19.142;2023-03-13T10:30:33;10.70;92.70
9329;DHT22;4703;48.748;19.142;2023-03-13T10:35:44;10.00;92.30
9329;DHT22;4703;48.748;19.142;2023-03-13T10:38:19;12.10;94.10
9329;DHT22;4703;48.748;19.142;2023-03-13T10:40:57;11.10;94.00
9329;DHT22;4703;48.748;19.142;2023-03-13T10:43:26;12.40;92.90
9329;DHT22;4703;48.748;19.142;2023-03-13T10:45:55;11.40;92.70
9329;DHT22;4703;48.748;19.142;2023-03-13T10:48:25;11.70;92.20
9329;DHT22;4703;48.748;19.142;2023-03-13T10:50:56;13.60;92.70
9329;DHT22;4703;48.748;19.142;2023-03-13T10:53:25;14.90;93.10
9329;DHT22;4703;48.748;19.142;2023-03-13T10:56:11;11.60;91.50
9329;DHT22;4703;48.748;19.142;2023-03-13T10:58:41;11.70;91.90
9329;DHT22;4703;48.748;19.142;2023-03-13T11:03:51;11.50;89.50
9329;DHT22;4703;48.748;19.142;2023-03-13T11:06:33;11.90;89.90
9329;DHT22;4703;48.748;19.142;2023-03-13T11:09:06;11.10;89.80
9329;DHT22;4703;48.748;19.142;2023-03-13T11:11:50;10.90;90.20
9329;DHT22;4703;48.748;19.142;2023-03-13T11:14:24;10.70;90.70
9329;DHT22;4703;48.748;19.142;2023-03-13T11:17:14;12.30;91.50
9329;DHT22;4703;48.748;19.142;2023-03-13T11:20:07;10.70;91.80
9329;DHT22;4703;48.748;19.142;2023-03-13T11:23:20;10.70;92.30
9329;DHT22;4703;48.748;19.142;2023-03-13T11:26:22;10.70;92.10
9329;DHT22;4703;48.748;19.142;2023-03-13T11:31:53;10.80;91.90
9329;DHT22;4703;48.748;19.142;2023-03-13T11:34:41;10.80;90.80
9329;DHT22;4703;48.748;19.142;2023-03-13T11:37:14;10.80;91.00
9329;DHT22;4703;48.748;19.142;2023-03-13T11:40:18;11.20;91.00
9329;DHT22;4703;48.748;19.142;2023-03-13T11:46:12;11.00;91.30
9329;DHT22;4703;48.748;19.142;2023-03-13T11:48:59;11.00;90.70
9329;DHT22;4703;48.748;19.142;2023-03-13T11:57:34;11.30;91.30
9329;DHT22;4703;48.748;19.142;2023-03-13T12:03:01;11.60;91.00
9329;DHT22;4703;48.748;19.142;2023-03-13T12:05:42;11.80;91.00
9329;DHT22;4703;48.748;19.142;2023-03-13T12:08:24;12.10;90.80
9329;DHT22;4703;48.748;19.142;2023-03-13T12:16:42;12.50;88.30
9329;DHT22;4703;48.748;19.142;2023-03-13T12:19:15;12.60;87.90
9329;DHT22;4703;48.748;19.142;2023-03-13T12:21:49;13.00;85.30
9329;DHT22;4703;48.748;19.142;2023-03-13T12:24:36;14.30;86.90
9329;DHT22;4703;48.748;19.142;2023-03-13T12:27:20;12.70;85.90
9329;DHT22;4703;48.748;19.142;2023-03-13T12:29:59;12.60;84.20
9329;DHT22;4703;48.748;19.142;2023-03-13T12:33:11;12.60;84.10
9329;DHT22;4703;48.748;19.142;2023-03-13T12:35:45;12.50;84.50
9329;DHT22;4703;48.748;19.142;2023-03-13T12:41:12;14.20;85.70
9329;DHT22;4703;48.748;19.142;2023-03-13T12:43:48;12.60;84.90
9329;DHT22;4703;48.748;19.142;2023-03-13T12:50:11;12.60;86.30
9329;DHT22;4703;48.748;19.142;2023-03-13T12:53:10;12.60;86.60
9329;DHT22;4703;48.748;19.142;2023-03-13T12:58:52;12.60;87.50
9329;DHT22;4703;48.748;19.142;2023-03-13T13:01:40;12.60;85.20
9329;DHT22;4703;48.748;19.142;2023-03-13T13:04:16;12.60;85.80
9329;DHT22;4703;48.748;19.142;2023-03-13T13:12:17;12.50;84.80
9329;DHT22;4703;48.748;19.142;2023-03-13T13:20:31;13.30;85.80
9329;DHT22;4703;48.748;19.142;2023-03-13T13:23:40;12.70;84.50
9329;DHT22;4703;48.748;19.142;2023-03-13T13:29:01;13.10;86.20
9329;DHT22;4703;48.748;19.142;2023-03-13T13:39:53;12.70;77.00
9329;DHT22;4703;48.748;19.142;2023-03-13T13:44:58;13.20;78.00
9329;DHT22;4703;48.748;19.142;2023-03-13T13:47:27;12.70;79.00
9329;DHT22;4703;48.748;19.142;2023-03-13T13:49:59;12.20;78.60
9329;DHT22;4703;48.748;19.142;2023-03-13T13:52:36;12.40;79.40
9329;DHT22;4703;48.748;19.142;2023-03-13T13:55:31;12.10;80.60
9329;DHT22;4703;48.748;19.142;2023-03-13T13:58:17;11.90;80.20
9329;DHT22;4703;48.748;19.142;2023-03-13T14:00:54;11.80;79.70
9329;DHT22;4703;48.748;19.142;2023-03-13T14:03:25;11.90;80.20
9329;DHT22;4703;48.748;19.142;2023-03-13T14:06:38;13.10;82.70
9329;DHT22;4703;48.748;19.142;2023-03-13T14:08:50;9.90;80.20
9329;DHT22;4703;48.748;19.142;2023-03-13T14:11:25;12.40;82.20
9329;DHT22;4703;48.748;19.142;2023-03-13T14:14:13;11.90;81.40
9329;DHT22;4703;48.748;19.142;2023-03-13T14:16:47;12.90;83.30
9329;DHT22;4703;48.748;19.142;2023-03-13T14:19:28;13.60;84.00
9329;DHT22;4703;48.748;19.142;2023-03-13T14:22:02;11.50;81.80
9329;DHT22;4703;48.748;19.142;2023-03-13T14:24:33;11.80;82.30
9329;DHT22;4703;48.748;19.142;2023-03-13T14:27:21;11.80;82.70
9329;DHT22;4703;48.748;19.142;2023-03-13T14:30:05;12.00;83.10
9329;DHT22;4703;48.748;19.142;2023-03-13T14:32:37;11.50;82.00
9329;DHT22;4703;48.748;19.142;2023-03-13T14:35:05;11.50;81.10
9329;DHT22;4703;48.748;19.142;2023-03-13T14:37:47;11.50;82.00
9329;DHT22;4703;48.748;19.142;2023-03-13T14:40:25;11.40;80.80
9329;DHT22;4703;48.748;19.142;2023-03-13T14:42:58;11.40;80.80
9329;DHT22;4703;48.748;19.142;2023-03-13T14:45:34;11.40;79.80
9329;DHT22;4703;48.748;19.142;2023-03-13T14:50:53;11.30;79.60
9329;DHT22;4703;48.748;19.142;2023-03-13T14:53:59;12.80;81.40
9329;DHT22;4703;48.748;19.142;2023-03-13T14:56:37;11.30;80.00
9329;DHT22;4703;48.748;19.142;2023-03-13T14:59:17;11.20;79.60
9329;DHT22;4703;48.748;19.142;2023-03-13T15:02:02;11.20;79.40
9329;DHT22;4703;48.748;19.142;2023-03-13T15:07:41;11.10;79.80
9329;DHT22;4703;48.748;19.142;2023-03-13T15:10:24;11.20;79.90
9329;DHT22;4703;48.748;19.142;2023-03-13T15:12:58;11.40;80.60
9329;DHT22;4703;48.748;19.142;2023-03-13T15:15:25;12.40;82.20
9329;DHT22;4703;48.748;19.142;2023-03-13T15:17:52;11.60;81.80
9329;DHT22;4703;48.748;19.142;2023-03-13T15:20:19;11.40;81.20
9329;DHT22;4703;48.748;19.142;2023-03-13T15:22:48;11.00;80.80
9329;DHT22;4703;48.748;19.142;2023-03-13T15:25:19;11.80;82.30
9329;DHT22;4703;48.748;19.142;2023-03-13T15:27:48;11.10;81.70
9329;DHT22;4703;48.748;19.142;2023-03-13T15:30:20;11.60;82.10
9329;DHT22;4703;48.748;19.142;2023-03-13T15:32:51;11.00;81.90
9329;DHT22;4703;48.748;19.142;2023-03-13T15:35:22;11.70;82.30
9329;DHT22;4703;48.748;19.142;2023-03-13T15:37:55;11.10;82.90
9329;DHT22;4703;48.748;19.142;2023-03-13T15:40:22;11.00;86.40
9329;DHT22;4703;48.748;19.142;2023-03-13T15:42:51;11.00;90.00
9329;DHT22;4703;48.748;19.142;2023-03-13T15:45:19;11.70;91.30
9329;DHT22;4703;48.748;19.142;2023-03-13T15:47:47;12.50;92.80
9329;DHT22;4703;48.748;19.142;2023-03-13T15:50:19;11.70;93.80
9329;DHT22;4703;48.748;19.142;2023-03-13T15:52:47;10.90;94.20
9329;DHT22;4703;48.748;19.142;2023-03-13T15:55:14;10.80;94.70
9329;DHT22;4703;48.748;19.142;2023-03-13T15:57:45;10.70;95.10
9329;DHT22;4703;48.748;19.142;2023-03-13T16:00:19;12.20;96.30
9329;DHT22;4703;48.748;19.142;2023-03-13T16:02:48;10.60;95.90
9329;DHT22;4703;48.748;19.142;2023-03-13T16:05:15;10.60;96.50
9329;DHT22;4703;48.748;19.142;2023-03-13T16:07:43;12.30;97.80
9329;DHT22;4703;48.748;19.142;2023-03-13T16:10:26;11.70;98.00
9329;DHT22;4703;48.748;19.142;2023-03-13T16:12:54;10.40;97.70
9329;DHT22;4703;48.748;19.142;2023-03-13T16:15:21;11.90;98.80
9329;DHT22;4703;48.748;19.142;2023-03-13T16:17:48;11.20;98.60
9329;DHT22;4703;48.748;19.142;2023-03-13T16:20:21;10.20;98.40
9329;DHT22;4703;48.748;19.142;2023-03-13T16:22:49;10.20;98.70
9329;DHT22;4703;48.748;19.142;2023-03-13T16:25:19;10.40;98.90
9329;DHT22;4703;48.748;19.142;2023-03-13T16:27:47;11.80;99.40
9329;DHT22;4703;48.748;19.142;2023-03-13T16:30:21;10.10;98.80
9329;DHT22;4703;48.748;19.142;2023-03-13T16:32:49;10.00;99.30
9329;DHT22;4703;48.748;19.142;2023-03-13T16:35:16;11.90;99.90
9329;DHT22;4703;48.748;19.142;2023-03-13T16:37:43;9.90;99.90
9329;DHT22;4703;48.748;19.142;2023-03-13T16:40:20;12.50;99.90
9329;DHT22;4703;48.748;19.142;2023-03-13T16:42:48;9.80;99.90
9329;DHT22;4703;48.748;19.142;2023-03-13T16:45:16;11.90;99.90
9329;DHT22;4703;48.748;19.142;2023-03-13T16:47:44;9.80;99.90
9329;DHT22;4703;48.748;19.142;2023-03-13T16:50:25;11.50;99.90
9329;DHT22;4703;48.748;19.142;2023-03-13T16:53:00;9.70;99.90
9329;DHT22;4703;48.748;19.142;2023-03-13T16:55:28;9.70;99.90
9329;DHT22;4703;48.748;19.142;2023-03-13T16:57:57;11.30;99.90
9329;DHT22;4703;48.748;19.142;2023-03-13T17:00:27;9.60;99.90
9329;DHT22;4703;48.748;19.142;2023-03-13T17:02:55;11.30;99.90
9329;DHT22;4703;48.748;19.142;2023-03-13T17:05:25;12.10;99.90
9329;DHT22;4703;48.748;19.142;2023-03-13T17:07:52;9.50;99.90
9329;DHT22;4703;48.748;19.142;2023-03-13T17:10:28;9.50;99.90
9329;DHT22;4703;48.748;19.142;2023-03-13T17:12:57;9.80;99.90
9329;DHT22;4703;48.748;19.142;2023-03-13T17:15:25;9.40;99.90
9329;DHT22;4703;48.748;19.142;2023-03-13T17:17:53;9.40;99.90
9329;DHT22;4703;48.748;19.142;2023-03-13T17:20:21;11.50;99.90
9329;DHT22;4703;48.748;19.142;2023-03-13T17:22:50;12.30;99.90
9329;DHT22;4703;48.748;19.142;2023-03-13T17:25:17;10.10;99.90
9329;DHT22;4703;48.748;19.142;2023-03-13T17:27:44;10.60;99.90
9329;DHT22;4703;48.748;19.142;2023-03-13T17:32:46;9.30;99.90
9329;DHT22;4703;48.748;19.142;2023-03-13T17:35:15;11.80;99.90
9329;DHT22;4703;48.748;19.142;2023-03-13T17:37:43;9.20;99.90
9329;DHT22;4703;48.748;19.142;2023-03-13T17:40:19;9.20;99.90
9329;DHT22;4703;48.748;19.142;2023-03-13T17:42:49;10.20;99.90
9329;DHT22;4703;48.748;19.142;2023-03-13T17:45:16;11.70;99.90
9329;DHT22;4703;48.748;19.142;2023-03-13T17:47:44;9.20;99.90
9329;DHT22;4703;48.748;19.142;2023-03-13T17:52:48;9.10;99.90
9329;DHT22;4703;48.748;19.142;2023-03-13T17:55:15;11.10;99.90
9329;DHT22;4703;48.748;19.142;2023-03-13T17:57:43;9.00;99.90
9329;DHT22;4703;48.748;19.142;2023-03-13T18:00:24;10.70;99.90
9329;DHT22;4703;48.748;19.142;2023-03-13T18:02:55;9.00;99.90